Time;durP1;ratioP1;P1;durP2;ratioP2;P2;SDS_P1;SDS_P2;PMS_P1;PMS_P2;Temp;Humidity;BMP_temperature;BMP_pressure;BME280_temperature;BME280_humidity;BME280_pressure;Samples;Min_cycle;Max_cycle;Signal;HPM_P1;HPM_P2
2021/11/11 00:01:53;;;;;;;;;;;;;;;;;;6073187;23;20030;-87
2021/11/11 00:04:22;;;;;;;;;;;;;;;;;;6050021;23;19921;-88
2021/11/11 00:06:52;;;;;;;;;;;;;;;;;;6061025;23;19925;-95
2021/11/11 00:09:24;;;;;;;;;;;;;;;;;;6073114;23;19949;-93
2021/11/11 00:11:55;;;;;;;;;;;;;;;;;;6093082;23;19921;-90
2021/11/11 00:14:28;;;;;;;;;;;;;;;;;;6076096;23;19932;-90
2021/11/11 00:16:57;;;;;;;;;;;;;;;;;;6102320;23;19921;-88
2021/11/11 00:19:26;;;;;;;;;;;;;;;;;;6052893;23;19927;-87
2021/11/11 00:21:59;;;;;;;;;;;;;;;;;;6053274;23;19929;-85
2021/11/11 00:24:29;;;;;;;;;;;;;;;;;;6087717;23;19933;-88
2021/11/11 00:27:01;;;;;;;;;;;;;;;;;;6077527;23;19928;-87
2021/11/11 00:29:30;;;;;;;;;;;;;;;;;;6076285;23;19921;-88
2021/11/11 00:32:02;;;;;;;;;;;;;;;;;;6077697;23;20290;-85
2021/11/11 00:34:30;;;;;;;;;;;;;;;;;;6052495;23;19921;-87
2021/11/11 00:37:01;;;;;;;;;;;;;;;;;;6052803;23;19921;-88
2021/11/11 00:39:29;;;;;;;;;;;;;;;;;;6078995;23;19921;-88
2021/11/11 00:41:58;;;;;;;;;;;;;;;;;;6053579;23;19925;-91
2021/11/11 00:44:26;;;;;;;;;;;;;;;;;;6052394;23;19921;-87
2021/11/11 00:46:59;;;;;;;;;;;;;;;;;;6053233;23;19947;-88
2021/11/11 00:49:28;;;;;;;;;;;;;;;;;;6053079;23;19925;-90
2021/11/11 00:51:57;;;;;;;;;;;;;;;;;;6076769;23;19921;-87
2021/11/11 00:54:29;;;;;;;;;;;;;;;;;;6054073;23;19948;-87
2021/11/11 00:56:59;;;;;;;;;;;;;;;;;;6052588;23;19932;-90
2021/11/11 00:59:35;;;;;;;;;;;;;;;;;;6084688;23;19921;-91
2021/11/11 01:02:22;;;;;;;;;;;;;;;;;;6053275;23;19928;-90
2021/11/11 01:05:08;;;;;;;;;;;;;;;;;;6053667;23;19977;-91
2021/11/11 01:08:06;;;;;;;;;;;;;;;;;;6052686;23;19949;-90
2021/11/11 01:10:44;;;;;;;;;;;;;;;;;;6078768;23;20330;-87
2021/11/11 01:13:18;;;;;;;;;;;;;;;;;;6086495;23;19921;-87
2021/11/11 01:15:57;;;;;;;;;;;;;;;;;;6053604;23;19921;-84
2021/11/11 01:18:28;;;;;;;;;;;;;;;;;;6052739;23;19921;-86
2021/11/11 01:20:57;;;;;;;;;;;;;;;;;;6053096;23;19936;-89
2021/11/11 01:23:25;;;;;;;;;;;;;;;;;;6076581;23;19927;-87
2021/11/11 01:25:55;;;;;;;;;;;;;;;;;;6076154;23;19921;-89
2021/11/11 01:28:27;;;;;;;;;;;;;;;;;;6076449;23;19927;-89
2021/11/11 01:30:59;;;;;;;;;;;;;;;;;;6076876;23;19931;-89
2021/11/11 01:33:32;;;;;;;;;;;;;;;;;;6052219;23;19928;-89
2021/11/11 01:36:07;;;;;;;;;;;;;;;;;;6075552;23;19921;-86
2021/11/11 01:38:59;;;;;;;;;;;;;;;;;;6052542;23;19925;-85
2021/11/11 01:41:45;;;;;;;;;;;;;;;;;;6085987;23;19922;-89
2021/11/11 01:44:19;;;;;;;;;;;;;;;;;;6051865;23;19922;-88
2021/11/11 01:46:51;;;;;;;;;;;;;;;;;;6052637;23;19929;-90
2021/11/11 01:49:25;;;;;;;;;;;;;;;;;;6053525;23;19921;-87
2021/11/11 01:51:55;;;;;;;;;;;;;;;;;;6052226;23;20366;-89
2021/11/11 01:54:29;;;;;;;;;;;;;;;;;;6052514;23;19944;-87
2021/11/11 01:57:03;;;;;;;;;;;;;;;;;;6077012;23;19921;-87
2021/11/11 01:59:42;;;;;;;;;;;;;;;;;;6053371;23;20327;-89
2021/11/11 02:03:16;;;;;;;;;;;;;;;;;;;;;
2021/11/11 02:06:06;;;;;;;;;;;;;;;;;;6054901;23;19922;-87
2021/11/11 02:09:07;;;;;;;;;;;;;;;;;;6052275;23;19927;-84
2021/11/11 02:12:08;;;;;;;;;;;;;;;;;;6073728;23;19921;-87
2021/11/11 02:15:06;;;;;;;;;;;;;;;;;;6051498;23;19944;-86
2021/11/11 02:17:40;;;;;;;;;;;;;;;;;;6051001;23;19928;-87
2021/11/11 02:20:19;;;;;;;;;;;;;;;;;;6050387;23;19932;-90
2021/11/11 02:23:07;;;;;;;;;;;;;;;;;;6052856;23;20030;-84
2021/11/11 02:26:05;;;;;;;;;;;;;;;;;;6076077;23;19921;-86
2021/11/11 02:28:51;;;;;;;;;;;;;;;;;;6051555;23;19925;-90
2021/11/11 02:31:29;;;;;;;;;;;;;;;;;;6051649;23;19921;-87
2021/11/11 02:33:59;;;;;;;;;;;;;;;;;;6051711;23;19932;-88
2021/11/11 02:37:00;;;;;;;;;;;;;;;;;;6051291;23;20254;-89
2021/11/11 02:39:50;;;;;;;;;;;;;;;;;;6050600;23;19931;-87
2021/11/11 02:42:22;;;;;;;;;;;;;;;;;;6085068;23;19921;-89
2021/11/11 02:44:56;;;;;;;;;;;;;;;;;;6050778;23;20255;-86
2021/11/11 02:47:30;;;;;;;;;;;;;;;;;;6051466;23;19927;-89
2021/11/11 02:50:02;;;;;;;;;;;;;;;;;;6074012;23;19932;-87
2021/11/11 02:52:32;;;;;;;;;;;;;;;;;;6074339;23;19921;-87
2021/11/11 02:55:01;;;;;;;;;;;;;;;;;;6051148;23;19925;-87
2021/11/11 02:57:31;;;;;;;;;;;;;;;;;;6051325;23;19925;-88
2021/11/11 03:00:20;;;;;;;;;;;;;;;;;;6045070;23;19928;-85
2021/11/11 03:03:01;;;;;;;;;;;;;;;;;;6046826;23;19972;-85
2021/11/11 03:05:45;;;;;;;;;;;;;;;;;;6046485;23;19926;-86
2021/11/11 03:08:25;;;;;;;;;;;;;;;;;;6070526;23;19922;-90
2021/11/11 03:10:58;;;;;;;;;;;;;;;;;;6045748;23;19925;-87
2021/11/11 03:13:47;;;;;;;;;;;;;;;;;;6045917;23;19928;-89
2021/11/11 03:16:19;;;;;;;;;;;;;;;;;;6045283;23;20263;-89
2021/11/11 03:18:49;;;;;;;;;;;;;;;;;;6044793;23;19922;-88
2021/11/11 03:21:24;;;;;;;;;;;;;;;;;;6068931;23;19922;-87
2021/11/11 03:24:08;;;;;;;;;;;;;;;;;;6045639;23;19926;-89
2021/11/11 03:27:09;;;;;;;;;;;;;;;;;;6080455;23;20361;-85
2021/11/11 03:29:44;;;;;;;;;;;;;;;;;;6045740;23;19922;-86
2021/11/11 03:32:23;;;;;;;;;;;;;;;;;;6046196;23;20339;-87
2021/11/11 03:39:01;;;;;;;;;;;;;;;;;;6067908;23;19926;-87
2021/11/11 03:42:01;;;;;;;;;;;;;;;;;;6047551;23;19922;-89
2021/11/11 03:44:52;;;;;;;;;;;;;;;;;;6044810;23;19928;-85
2021/11/11 03:47:33;;;;;;;;;;;;;;;;;;6046197;23;19921;-84
2021/11/11 03:50:17;;;;;;;;;;;;;;;;;;6045899;23;19944;-84
2021/11/11 03:52:52;;;;;;;;;;;;;;;;;;6047120;23;19922;-87
2021/11/11 03:55:25;;;;;;;;;;;;;;;;;;6047414;23;19921;-89
2021/11/11 03:57:59;;;;;;;;;;;;;;;;;;6048683;23;20119;-86
2021/11/11 04:00:30;;;;;;;;;;;;;;;;;;6074811;23;20490;-83
2021/11/11 04:03:04;;;;;;;;;;;;;;;;;;6047903;23;19922;-89
2021/11/11 04:05:43;;;;;;;;;;;;;;;;;;6049302;23;19932;-86
2021/11/11 04:08:19;;;;;;;;;;;;;;;;;;6048001;23;19928;-88
2021/11/11 04:10:53;;;;;;;;;;;;;;;;;;6047347;23;19922;-89
2021/11/11 04:13:28;;;;;;;;;;;;;;;;;;6048891;23;20251;-87
2021/11/11 04:16:03;;;;;;;;;;;;;;;;;;6047775;23;19922;-86
2021/11/11 04:18:42;;;;;;;;;;;;;;;;;;6048028;23;19925;-90
2021/11/11 04:21:12;;;;;;;;;;;;;;;;;;6047521;23;19941;-90
2021/11/11 04:23:44;;;;;;;;;;;;;;;;;;6072294;23;19921;-88
2021/11/11 04:26:17;;;;;;;;;;;;;;;;;;6047526;23;19928;-89
2021/11/11 04:28:53;;;;;;;;;;;;;;;;;;6080739;23;19928;-90
2021/11/11 04:31:25;;;;;;;;;;;;;;;;;;6080366;23;19931;-88
2021/11/11 04:33:57;;;;;;;;;;;;;;;;;;6046592;23;19921;-86
2021/11/11 04:37:07;;;;;;;;;;;;;;;;;;6070893;23;20343;-87
2021/11/11 04:46:53;;;;;;;;;;;;;;;;;;6071326;23;19944;-85
2021/11/11 05:00:20;;;;;;;;;;;;;;;;;;6068495;23;20254;-88
2021/11/11 05:13:41;;;;;;;;;;;;;;;;;;6035352;23;19929;-88
2021/11/11 05:16:15;;;;;;;;;;;;;;;;;;6046813;23;19937;-90
2021/11/11 05:18:47;;;;;;;;;;;;;;;;;;6072087;23;19922;-88
2021/11/11 05:21:33;;;;;;;;;;;;;;;;;;6047628;23;19921;-88
2021/11/11 05:24:10;;;;;;;;;;;;;;;;;;6046598;23;19922;-88
2021/11/11 05:26:54;;;;;;;;;;;;;;;;;;6046446;23;19921;-88
2021/11/11 05:29:58;;;;;;;;;;;;;;;;;;6069655;23;19932;-87
2021/11/11 05:32:47;;;;;;;;;;;;;;;;;;6069821;23;20263;-87
2021/11/11 05:35:36;;;;;;;;;;;;;;;;;;6045226;23;19933;-87
2021/11/11 05:42:03;;;;;;;;;;;;;;;;;;6043613;23;19932;-87
2021/11/11 05:44:59;;;;;;;;;;;;;;;;;;6045878;23;19925;-89
2021/11/11 05:47:35;;;;;;;;;;;;;;;;;;6045230;23;19949;-85
2021/11/11 05:50:10;;;;;;;;;;;;;;;;;;6068573;23;19929;-89
2021/11/11 05:52:55;;;;;;;;;;;;;;;;;;6045363;23;19922;-88
2021/11/11 05:55:59;;;;;;;;;;;;;;;;;;6044404;23;19929;-87
2021/11/11 06:11:22;;;;;;;;;;;;;;;;;;5888131;24;19930;-86
2021/11/11 06:27:47;;;;;;;;;;;;;;;;;;;;;
2021/11/11 10:27:24;;;;;;;;;;;;;;;;;;6094813;23;19917;-86
2021/11/11 10:29:55;;;;;;;;;;;;;;;;;;6105364;23;19921;-89
2021/11/11 10:32:27;;;;;;;;;;;;;;;;;;6106235;23;19944;-88
2021/11/11 10:34:57;;;;;;;;;;;;;;;;;;6105583;23;20364;-87
2021/11/11 10:37:27;;;;;;;;;;;;;;;;;;6105578;23;19920;-90
2021/11/11 10:39:57;;;;;;;;;;;;;;;;;;6104964;23;19931;-85
2021/11/11 10:42:29;;;;;;;;;;;;;;;;;;6155471;23;20360;-90
2021/11/11 10:44:57;;;;;;;;;;;;;;;;;;6104962;23;19927;-90
2021/11/11 10:47:28;;;;;;;;;;;;;;;;;;6130055;23;19925;-90
2021/11/11 10:49:56;;;;;;;;;;;;;;;;;;6104128;23;20271;-85
2021/11/11 10:52:30;;;;;;;;;;;;;;;;;;6104933;23;19942;-87
2021/11/11 10:54:59;;;;;;;;;;;;;;;;;;6164560;23;19921;-84
2021/11/11 10:57:33;;;;;;;;;;;;;;;;;;6129090;23;19927;-87
2021/11/11 11:00:23;;;;;;;;;;;;;;;;;;6104094;23;19921;-85
2021/11/11 11:02:53;;;;;;;;;;;;;;;;;;6095266;23;19920;-87
2021/11/11 11:05:23;;;;;;;;;;;;;;;;;;6131556;23;19921;-87
2021/11/11 11:07:55;;;;;;;;;;;;;;;;;;6106796;23;19926;-87
2021/11/11 11:10:23;;;;;;;;;;;;;;;;;;6105561;23;19931;-87
2021/11/11 11:12:52;;;;;;;;;;;;;;;;;;6106749;23;19928;-86
2021/11/11 11:15:34;;;;;;;;;;;;;;;;;;6105371;23;20238;-87
2021/11/11 11:18:03;;;;;;;;;;;;;;;;;;6107593;23;19928;-89
2021/11/11 11:20:31;;;;;;;;;;;;;;;;;;6106231;23;19921;-86
2021/11/11 11:23:09;;;;;;;;;;;;;;;;;;6105949;23;19921;-87
2021/11/11 11:25:38;;;;;;;;;;;;;;;;;;6106023;23;19944;-87
2021/11/11 11:28:21;;;;;;;;;;;;;;;;;;6130673;23;20499;-84
2021/11/11 11:30:53;;;;;;;;;;;;;;;;;;6105448;23;19925;-87
2021/11/11 11:33:30;;;;;;;;;;;;;;;;;;6106542;23;19921;-89
2021/11/11 11:35:59;;;;;;;;;;;;;;;;;;6140910;23;19920;-85
2021/11/11 11:38:28;;;;;;;;;;;;;;;;;;6106168;23;19985;-87
2021/11/11 11:40:57;;;;;;;;;;;;;;;;;;6130110;23;19935;-89
2021/11/11 11:43:26;;;;;;;;;;;;;;;;;;6132733;23;19927;-87
2021/11/11 11:45:56;;;;;;;;;;;;;;;;;;6107584;23;20353;-87
2021/11/11 11:48:27;;;;;;;;;;;;;;;;;;6132136;23;19928;-85
2021/11/11 11:51:02;;;;;;;;;;;;;;;;;;6110763;23;19927;-85
2021/11/11 11:53:37;;;;;;;;;;;;;;;;;;6119003;23;19927;-86
2021/11/11 11:56:11;;;;;;;;;;;;;;;;;;6116393;23;19931;-86
2021/11/11 11:58:42;;;;;;;;;;;;;;;;;;6152920;23;19921;-88
2021/11/11 12:04:18;;;;;;;;;;;;;;;;;;6123641;23;19920;-87
2021/11/11 12:09:34;;;;;;;;;;;;;;;;;;6139214;23;19927;-89
2021/11/11 12:15:17;;;;;;;;;;;;;;;;;;6039013;23;19926;-84
2021/11/11 12:29:29;;;;;;;;;;;;;;;;;;6106833;23;19920;-84
2021/11/11 12:40:26;;;;;;;;;;;;;;;;;;6106781;23;19921;-85
2021/11/11 12:42:56;;;;;;;;;;;;;;;;;;6143141;23;20253;-84
2021/11/11 12:45:25;;;;;;;;;;;;;;;;;;6107869;23;19921;-83
2021/11/11 12:47:55;;;;;;;;;;;;;;;;;;6132873;23;19921;-85
2021/11/11 12:50:29;;;;;;;;;;;;;;;;;;6108017;23;19989;-83
2021/11/11 12:53:16;;;;;;;;;;;;;;;;;;6108705;23;20317;-84
2021/11/11 12:55:46;;;;;;;;;;;;;;;;;;6108091;23;19921;-85
2021/11/11 12:58:16;;;;;;;;;;;;;;;;;;6109269;23;20231;-84
2021/11/11 13:00:46;;;;;;;;;;;;;;;;;;6134226;23;20262;-85
2021/11/11 13:03:15;;;;;;;;;;;;;;;;;;6108825;23;19921;-86
2021/11/11 13:05:46;;;;;;;;;;;;;;;;;;6109233;23;20261;-85
2021/11/11 13:08:15;;;;;;;;;;;;;;;;;;6144129;23;19921;-85
2021/11/11 13:10:53;;;;;;;;;;;;;;;;;;6159326;23;19927;-85
2021/11/11 13:13:25;;;;;;;;;;;;;;;;;;6110428;23;19920;-84
2021/11/11 13:15:54;;;;;;;;;;;;;;;;;;6110589;23;20265;-83
2021/11/11 13:18:42;;;;;;;;;;;;;;;;;;6110137;23;19927;-86
2021/11/11 13:21:14;;;;;;;;;;;;;;;;;;6132301;23;19935;-86
2021/11/11 13:23:47;;;;;;;;;;;;;;;;;;6110183;23;19920;-85
2021/11/11 13:26:47;;;;;;;;;;;;;;;;;;6110063;23;19925;-85
2021/11/11 13:54:01;;;;;;;;;;;;;;;;;;6104399;23;19920;-87
2021/11/11 14:00:49;;;;;;;;;;;;;;;;;;6131871;23;19928;-85
2021/11/11 14:03:55;;;;;;;;;;;;;;;;;;6105394;23;20364;-88
2021/11/11 15:16:50;;;;;;;;;;;;;;;;;;6139986;23;19920;-87
2021/11/11 16:01:44;;;;;;;;;;;;;;;;;;6140745;23;19925;-90
2021/11/11 16:20:56;;;;;;;;;;;;;;;;;;6104344;23;19920;-85
2021/11/11 16:23:44;;;;;;;;;;;;;;;;;;6109823;23;19927;-87
2021/11/11 16:26:15;;;;;;;;;;;;;;;;;;6107860;23;20384;-88
2021/11/11 16:28:46;;;;;;;;;;;;;;;;;;6106978;23;19920;-88
2021/11/11 16:31:17;;;;;;;;;;;;;;;;;;6106797;23;19921;-90
2021/11/11 16:33:45;;;;;;;;;;;;;;;;;;6107683;23;20364;-89
2021/11/11 16:36:14;;;;;;;;;;;;;;;;;;6157326;23;19928;-88
2021/11/11 16:38:43;;;;;;;;;;;;;;;;;;6156314;23;19921;-91
2021/11/11 16:41:12;;;;;;;;;;;;;;;;;;6129266;23;20257;-87
2021/11/11 16:43:41;;;;;;;;;;;;;;;;;;6105182;23;19920;-88
2021/11/11 16:46:10;;;;;;;;;;;;;;;;;;6129666;23;19925;-89
2021/11/11 16:48:39;;;;;;;;;;;;;;;;;;6105140;23;20364;-86
2021/11/11 16:51:07;;;;;;;;;;;;;;;;;;6105006;23;20262;-91
2021/11/11 16:53:36;;;;;;;;;;;;;;;;;;6129767;23;19956;-87
2021/11/11 16:56:04;;;;;;;;;;;;;;;;;;6104630;23;19942;-87
2021/11/11 16:58:33;;;;;;;;;;;;;;;;;;6155123;23;19921;-89
2021/11/11 17:01:02;;;;;;;;;;;;;;;;;;6105124;23;19920;-84
2021/11/11 17:03:31;;;;;;;;;;;;;;;;;;6105487;23;19920;-88
2021/11/11 17:05:59;;;;;;;;;;;;;;;;;;6105272;23;19925;-86
2021/11/11 17:08:28;;;;;;;;;;;;;;;;;;6105480;23;20342;-89
2021/11/11 17:10:57;;;;;;;;;;;;;;;;;;6104761;23;19920;-88
2021/11/11 17:13:25;;;;;;;;;;;;;;;;;;6130842;23;20261;-87
2021/11/11 17:15:55;;;;;;;;;;;;;;;;;;6129835;23;19921;-87
2021/11/11 17:18:26;;;;;;;;;;;;;;;;;;6130754;23;20360;-87
2021/11/11 17:20:56;;;;;;;;;;;;;;;;;;6131443;23;19931;-89
2021/11/11 17:23:24;;;;;;;;;;;;;;;;;;6106116;23;20363;-87
2021/11/11 17:28:51;;;;;;;;;;;;;;;;;;6112106;23;19928;-87
2021/11/11 17:31:19;;;;;;;;;;;;;;;;;;6106940;23;19927;-86
2021/11/11 17:33:49;;;;;;;;;;;;;;;;;;6106816;23;19921;-88
2021/11/11 17:36:17;;;;;;;;;;;;;;;;;;6130547;23;20277;-87
2021/11/11 17:38:46;;;;;;;;;;;;;;;;;;6106138;23;19921;-89
2021/11/11 17:41:15;;;;;;;;;;;;;;;;;;6106403;23;20435;-87
2021/11/11 17:43:45;;;;;;;;;;;;;;;;;;6105880;23;19924;-86
2021/11/11 17:46:18;;;;;;;;;;;;;;;;;;6106084;23;20249;-86
2021/11/11 17:48:47;;;;;;;;;;;;;;;;;;6106490;23;19921;-84
2021/11/11 17:51:30;;;;;;;;;;;;;;;;;;6105294;23;19965;-86
2021/11/11 17:54:04;;;;;;;;;;;;;;;;;;6140410;23;19921;-84
2021/11/11 17:56:33;;;;;;;;;;;;;;;;;;6139533;23;20353;-86
2021/11/11 17:59:04;;;;;;;;;;;;;;;;;;6130474;23;20506;-89
2021/11/11 18:01:33;;;;;;;;;;;;;;;;;;6109611;23;19936;-85
2021/11/11 18:04:01;;;;;;;;;;;;;;;;;;6133020;23;19927;-93
2021/11/11 18:06:32;;;;;;;;;;;;;;;;;;6107499;23;19920;-88
2021/11/11 18:09:04;;;;;;;;;;;;;;;;;;6107186;23;20261;-84
2021/11/11 18:11:34;;;;;;;;;;;;;;;;;;6140726;23;20342;-87
2021/11/11 18:14:05;;;;;;;;;;;;;;;;;;6131971;23;19924;-89
2021/11/11 18:16:36;;;;;;;;;;;;;;;;;;6106948;23;19924;-87
2021/11/11 18:19:05;;;;;;;;;;;;;;;;;;6106766;23;21673;-87
2021/11/11 18:21:35;;;;;;;;;;;;;;;;;;6106284;23;19930;-88
2021/11/11 18:24:03;;;;;;;;;;;;;;;;;;6131077;23;19924;-89
2021/11/11 18:26:32;;;;;;;;;;;;;;;;;;6106344;23;19921;-90
2021/11/11 18:29:14;;;;;;;;;;;;;;;;;;6131721;23;19924;-87
2021/11/11 18:31:44;;;;;;;;;;;;;;;;;;6106808;23;19921;-88
2021/11/11 18:34:17;;;;;;;;;;;;;;;;;;6133670;23;20253;-87
2021/11/11 18:36:54;;;;;;;;;;;;;;;;;;6107937;23;19921;-90
2021/11/11 18:39:24;;;;;;;;;;;;;;;;;;6107597;23;19921;-88
2021/11/11 18:41:53;;;;;;;;;;;;;;;;;;6107278;23;20178;-88
2021/11/11 18:44:29;;;;;;;;;;;;;;;;;;6107692;23;19925;-91
2021/11/11 18:47:01;;;;;;;;;;;;;;;;;;6141979;23;19920;-89
2021/11/11 18:49:33;;;;;;;;;;;;;;;;;;6107337;23;19921;-88
2021/11/11 18:52:03;;;;;;;;;;;;;;;;;;6105791;23;20590;-92
2021/11/11 18:54:31;;;;;;;;;;;;;;;;;;6106849;23;20130;-88
2021/11/11 18:56:59;;;;;;;;;;;;;;;;;;6105807;23;19942;-89
2021/11/11 18:59:27;;;;;;;;;;;;;;;;;;6105707;23;19928;-87
2021/11/11 19:01:56;;;;;;;;;;;;;;;;;;6156299;23;19921;-88
2021/11/11 19:04:26;;;;;;;;;;;;;;;;;;6106603;23;19931;-86
2021/11/11 19:06:56;;;;;;;;;;;;;;;;;;6106100;23;19925;-89
2021/11/11 19:09:28;;;;;;;;;;;;;;;;;;6106233;23;20102;-88
2021/11/11 19:11:58;;;;;;;;;;;;;;;;;;6106611;23;19931;-89
2021/11/11 19:14:29;;;;;;;;;;;;;;;;;;6104325;23;19921;-88
2021/11/11 19:17:00;;;;;;;;;;;;;;;;;;6107254;23;19920;-87
2021/11/11 19:19:32;;;;;;;;;;;;;;;;;;6106277;23;19920;-88
2021/11/11 19:22:00;;;;;;;;;;;;;;;;;;6141057;23;19927;-88
2021/11/11 19:24:30;;;;;;;;;;;;;;;;;;6109041;23;19920;-89
2021/11/11 19:26:58;;;;;;;;;;;;;;;;;;6109638;23;19953;-88
2021/11/11 19:29:27;;;;;;;;;;;;;;;;;;6108598;23;19924;-88
2021/11/11 19:31:57;;;;;;;;;;;;;;;;;;6109227;23;19921;-86
2021/11/11 19:34:29;;;;;;;;;;;;;;;;;;6108699;23;19928;-87
2021/11/11 19:37:22;;;;;;;;;;;;;;;;;;6108174;23;19921;-88
2021/11/11 19:40:09;;;;;;;;;;;;;;;;;;6108260;23;19920;-87
2021/11/11 19:42:45;;;;;;;;;;;;;;;;;;6108926;23;19921;-87
2021/11/11 19:45:54;;;;;;;;;;;;;;;;;;6132620;23;19921;-89
2021/11/11 19:48:44;;;;;;;;;;;;;;;;;;6108377;23;19932;-86
2021/11/11 19:56:53;;;;;;;;;;;;;;;;;;6103260;23;19921;-89
2021/11/11 19:59:32;;;;;;;;;;;;;;;;;;6139174;23;19927;-88
2021/11/11 20:02:20;;;;;;;;;;;;;;;;;;6107627;23;19931;-90
2021/11/11 20:05:04;;;;;;;;;;;;;;;;;;6107612;23;20337;-90
2021/11/11 20:07:42;;;;;;;;;;;;;;;;;;6106794;23;19927;-89
2021/11/11 20:10:19;;;;;;;;;;;;;;;;;;6135711;23;19920;-92
2021/11/11 20:18:50;;;;;;;;;;;;;;;;;;6101902;23;19921;-89
2021/11/11 20:30:13;;;;;;;;;;;;;;;;;;6132852;23;20333;-89
2021/11/11 20:35:57;;;;;;;;;;;;;;;;;;6108221;23;19942;-89
2021/11/11 20:44:13;;;;;;;;;;;;;;;;;;6109071;23;19927;-91
2021/11/11 20:47:02;;;;;;;;;;;;;;;;;;6108291;23;19927;-90
2021/11/11 20:49:48;;;;;;;;;;;;;;;;;;6106770;23;19927;-89
2021/11/11 20:52:41;;;;;;;;;;;;;;;;;;6106766;23;19921;-91
2021/11/11 20:58:04;;;;;;;;;;;;;;;;;;6107552;23;19924;-89
2021/11/11 21:00:34;;;;;;;;;;;;;;;;;;6106255;23;20275;-90
2021/11/11 21:03:10;;;;;;;;;;;;;;;;;;6107309;23;19925;-89
2021/11/11 21:05:43;;;;;;;;;;;;;;;;;;6131876;23;20338;-92
2021/11/11 21:08:34;;;;;;;;;;;;;;;;;;6107205;23;19920;-89
2021/11/11 21:11:27;;;;;;;;;;;;;;;;;;6107821;23;19921;-91
2021/11/11 21:14:14;;;;;;;;;;;;;;;;;;6109150;23;19928;-90
2021/11/11 21:19:54;;;;;;;;;;;;;;;;;;6100823;23;19925;-89
2021/11/11 21:22:26;;;;;;;;;;;;;;;;;;6108405;23;19924;-90
2021/11/11 21:24:55;;;;;;;;;;;;;;;;;;6108726;23;20372;-90
2021/11/11 21:27:26;;;;;;;;;;;;;;;;;;6109777;23;20212;-89
2021/11/11 21:29:55;;;;;;;;;;;;;;;;;;6108841;23;19924;-92
2021/11/11 21:32:24;;;;;;;;;;;;;;;;;;6108796;23;19920;-91
2021/11/11 21:37:40;;;;;;;;;;;;;;;;;;6062121;23;19940;-92
2021/11/11 21:40:11;;;;;;;;;;;;;;;;;;6108738;23;19920;-93
2021/11/11 21:42:40;;;;;;;;;;;;;;;;;;6108180;23;19921;-92
2021/11/11 21:45:10;;;;;;;;;;;;;;;;;;6107924;23;20238;-89
2021/11/11 21:47:39;;;;;;;;;;;;;;;;;;6109026;23;19920;-88
2021/11/11 21:50:09;;;;;;;;;;;;;;;;;;6132566;23;19920;-90
2021/11/11 21:52:42;;;;;;;;;;;;;;;;;;6107979;23;20355;-90
2021/11/11 21:55:16;;;;;;;;;;;;;;;;;;6108276;23;19921;-89
2021/11/11 21:58:00;;;;;;;;;;;;;;;;;;6107321;23;19928;-89
2021/11/11 22:00:33;;;;;;;;;;;;;;;;;;6131737;23;19968;-89
2021/11/11 22:03:10;;;;;;;;;;;;;;;;;;6108367;23;19920;-92
2021/11/11 22:25:21;;;;;;;;;;;;;;;;;;6088265;23;19927;-89
2021/11/11 22:33:27;;;;;;;;;;;;;;;;;;6111037;23;19921;-90
2021/11/11 22:35:57;;;;;;;;;;;;;;;;;;6110446;23;20342;-89
2021/11/11 22:38:28;;;;;;;;;;;;;;;;;;6109868;23;19928;-90
2021/11/11 22:41:06;;;;;;;;;;;;;;;;;;6134927;23;19927;-92
2021/11/11 22:43:35;;;;;;;;;;;;;;;;;;6160512;23;19920;-90
2021/11/11 22:46:09;;;;;;;;;;;;;;;;;;6108006;23;20341;-89
2021/11/11 22:48:38;;;;;;;;;;;;;;;;;;6107080;23;19928;-92
2021/11/11 22:51:09;;;;;;;;;;;;;;;;;;6106994;23;20026;-89
2021/11/11 22:53:59;;;;;;;;;;;;;;;;;;6106917;23;19924;-89
2021/11/11 22:56:32;;;;;;;;;;;;;;;;;;6106533;23;20031;-90
2021/11/11 22:59:11;;;;;;;;;;;;;;;;;;6139929;23;19921;-91
2021/11/11 23:01:57;;;;;;;;;;;;;;;;;;6141825;23;19927;-91
2021/11/11 23:13:20;;;;;;;;;;;;;;;;;;6107152;23;19927;-90
2021/11/11 23:16:03;;;;;;;;;;;;;;;;;;6166960;23;19921;-90
2021/11/11 23:25:23;;;;;;;;;;;;;;;;;;6095082;23;19920;-89
2021/11/11 23:33:39;;;;;;;;;;;;;;;;;;6108299;23;19924;-90
2021/11/11 23:36:11;;;;;;;;;;;;;;;;;;6107600;23;19920;-90
2021/11/11 23:38:47;;;;;;;;;;;;;;;;;;6107717;23;19920;-90
2021/11/11 23:41:15;;;;;;;;;;;;;;;;;;6103922;23;19928;-88
2021/11/11 23:43:47;;;;;;;;;;;;;;;;;;6105796;23;19920;-91
2021/11/11 23:46:21;;;;;;;;;;;;;;;;;;6107588;23;19927;-88
2021/11/11 23:48:52;;;;;;;;;;;;;;;;;;6106572;23;19920;-91
2021/11/11 23:51:43;;;;;;;;;;;;;;;;;;6106994;23;19969;-90
